Time;durP1;ratioP1;P1;durP2;ratioP2;P2;SDS_P1;SDS_P2;PMS_P1;PMS_P2;Temp;Humidity;BMP_temperature;BMP_pressure;BME280_temperature;BME280_humidity;BME280_pressure;Samples;Min_cycle;Max_cycle;Signal;HPM_P1;HPM_P2
2021/05/22 00:02:26;;;;;;;5.18;1.17;;;11.00;91.50;;;;;;4729114;30;20498;-83
2021/05/22 00:04:53;;;;;;;5.63;0.70;;;11.00;91.70;;;;;;4720465;30;20052;-87
2021/05/22 00:07:19;;;;;;;2.53;0.40;;;11.00;91.70;;;;;;4705887;30;20044;-86
2021/05/22 00:09:46;;;;;;;4.13;0.50;;;11.00;91.70;;;;;;4719248;30;20064;-87
2021/05/22 00:12:13;;;;;;;5.28;0.40;;;11.10;92.10;;;;;;4732118;30;20497;-87
2021/05/22 00:14:40;;;;;;;5.00;0.65;;;11.10;91.80;;;;;;4732366;30;20060;-88
2021/05/22 00:17:07;;;;;;;4.88;0.63;;;11.10;91.70;;;;;;4701847;30;20055;-89
2021/05/22 00:19:34;;;;;;;5.72;0.70;;;11.10;91.70;;;;;;4718240;30;20044;-89
2021/05/22 00:22:00;;;;;;;3.08;0.50;;;11.10;91.60;;;;;;4701434;30;20044;-89
2021/05/22 00:24:27;;;;;;;8.27;1.70;;;11.10;91.60;;;;;;4700262;30;20047;-89
2021/05/22 00:27:02;;;;;;;7.47;0.93;;;11.10;91.70;;;;;;4716862;30;20079;-86
2021/05/22 00:29:28;;;;;;;4.85;0.60;;;11.10;91.70;;;;;;4702708;30;20044;-88
2021/05/22 00:31:55;;;;;;;5.82;0.70;;;11.10;91.60;;;;;;4707254;30;20048;-87
2021/05/22 00:34:21;;;;;;;5.20;0.50;;;11.10;91.50;;;;;;4720415;30;20048;-88
2021/05/22 00:36:48;;;;;;;6.07;0.77;;;11.20;91.40;;;;;;4703525;30;20056;-87
2021/05/22 00:39:15;;;;;;;6.15;0.80;;;11.20;91.30;;;;;;4723891;30;20060;-87
2021/05/22 00:41:41;;;;;;;4.95;0.88;;;11.20;91.20;;;;;;4720945;30;20108;-88
2021/05/22 00:44:08;;;;;;;4.03;0.40;;;11.20;91.00;;;;;;4691179;30;20067;-86
2021/05/22 00:46:35;;;;;;;3.47;0.70;;;11.20;90.90;;;;;;4709007;30;20516;-86
2021/05/22 00:49:01;;;;;;;6.82;0.90;;;11.30;90.90;;;;;;4731207;30;20056;-84
2021/05/22 00:51:28;;;;;;;6.30;0.98;;;11.20;90.70;;;;;;4730840;30;20059;-86
2021/05/22 00:53:55;;;;;;;5.25;0.82;;;11.30;90.80;;;;;;4692786;30;20394;-88
2021/05/22 00:56:21;;;;;;;7.40;0.90;;;11.30;90.50;;;;;;4729750;30;20048;-87
2021/05/22 00:58:48;;;;;;;5.78;0.70;;;11.30;90.30;;;;;;4720035;30;20436;-87
2021/05/22 01:01:15;;;;;;;7.20;0.90;;;11.30;90.20;;;;;;4729252;30;20048;-86
2021/05/22 01:03:44;;;;;;;5.57;0.80;;;11.30;90.20;;;;;;4721569;30;20071;-85
2021/05/22 01:06:23;;;;;;;7.75;0.60;;;11.30;90.20;;;;;;4704163;30;20051;-85
2021/05/22 01:08:58;;;;;;;4.53;0.60;;;11.30;90.20;;;;;;4739509;30;20056;-87
2021/05/22 01:11:33;;;;;;;9.38;0.65;;;11.30;90.20;;;;;;4730432;30;20047;-85
2021/05/22 01:14:08;;;;;;;13.35;1.42;;;11.30;90.20;;;;;;4739961;30;20056;-86
2021/05/22 01:16:36;;;;;;;5.32;0.50;;;11.30;90.10;;;;;;4744919;30;20079;-84
2021/05/22 01:19:06;;;;;;;4.65;0.60;;;11.30;90.00;;;;;;4709322;30;20044;-85
2021/05/22 01:21:37;;;;;;;8.23;1.00;;;11.30;89.90;;;;;;4719330;30;20060;-85
2021/05/22 01:24:08;;;;;;;4.80;0.47;;;11.30;89.90;;;;;;4718727;30;20063;-85
2021/05/22 01:26:34;;;;;;;4.95;0.47;;;11.30;89.90;;;;;;4737592;30;20131;-85
2021/05/22 01:29:02;;;;;;;6.80;0.60;;;11.30;89.90;;;;;;4735853;30;20056;-84
2021/05/22 01:31:29;;;;;;;7.63;1.02;;;11.30;89.80;;;;;;4711746;30;20044;-85
2021/05/22 01:33:56;;;;;;;6.05;0.70;;;11.30;89.90;;;;;;4701995;30;20052;-86
2021/05/22 01:36:23;;;;;;;7.57;0.77;;;11.30;89.60;;;;;;4706207;30;20064;-86
2021/05/22 01:38:52;;;;;;;6.78;1.05;;;11.30;89.60;;;;;;4707075;30;20528;-85
2021/05/22 01:41:19;;;;;;;5.28;0.40;;;11.30;89.60;;;;;;4723626;30;20051;-86
2021/05/22 01:43:49;;;;;;;5.97;0.77;;;11.30;89.60;;;;;;4718360;30;20052;-85
2021/05/22 01:46:24;;;;;;;11.20;0.70;;;11.30;89.40;;;;;;4744451;30;20098;-83
2021/05/22 01:48:52;;;;;;;3.63;0.50;;;11.30;89.40;;;;;;4730034;30;20048;-86
2021/05/22 01:51:23;;;;;;;7.32;1.08;;;11.30;89.50;;;;;;4729078;30;20505;-85
2021/05/22 01:54:11;;;;;;;4.75;0.95;;;11.20;90.00;;;;;;4736872;30;20902;-86
2021/05/22 01:56:38;;;;;;;4.25;0.50;;;11.20;89.70;;;;;;4729914;30;20056;-84
2021/05/22 01:59:04;;;;;;;9.98;0.93;;;11.20;89.90;;;;;;4721993;30;20527;-85
2021/05/22 02:01:31;;;;;;;4.60;0.68;;;11.30;89.80;;;;;;4744943;30;20044;-84
2021/05/22 02:04:05;;;;;;;5.60;0.65;;;11.30;90.10;;;;;;4745910;30;20496;-85
2021/05/22 02:06:40;;;;;;;4.85;0.63;;;11.30;89.70;;;;;;4734402;30;20059;-85
2021/05/22 02:09:07;;;;;;;4.78;0.65;;;11.30;89.70;;;;;;4745082;30;20505;-85
2021/05/22 02:11:40;;;;;;;6.75;0.68;;;11.30;89.70;;;;;;4730024;30;20048;-85
2021/05/22 02:14:09;;;;;;;7.90;0.60;;;11.30;89.80;;;;;;4730204;30;20044;-83
2021/05/22 02:16:41;;;;;;;6.22;0.77;;;11.30;89.80;;;;;;4730244;30;20039;-84
2021/05/22 02:19:09;;;;;;;5.28;0.70;;;11.30;89.80;;;;;;4729872;30;20056;-82
2021/05/22 02:21:38;;;;;;;7.55;0.70;;;11.30;89.90;;;;;;4708451;30;20044;-82
2021/05/22 02:24:06;;;;;;;3.55;0.60;;;11.30;90.00;;;;;;4730008;30;20051;-82
2021/05/22 02:26:33;;;;;;;3.25;0.40;;;11.30;90.00;;;;;;4735434;30;20056;-82
2021/05/22 02:29:01;;;;;;;6.28;0.63;;;11.30;90.00;;;;;;4719441;30;20055;-80
2021/05/22 02:31:31;;;;;;;3.55;0.50;;;11.30;90.10;;;;;;4729933;30;20067;-82
2021/05/22 02:34:01;;;;;;;7.50;0.50;;;11.30;90.10;;;;;;4721747;30;20059;-82
2021/05/22 02:36:28;;;;;;;3.50;0.50;;;11.30;90.00;;;;;;4744814;30;20059;-82
2021/05/22 02:38:55;;;;;;;3.53;0.50;;;11.20;90.00;;;;;;4715615;30;20059;-82
2021/05/22 02:41:22;;;;;;;5.18;0.60;;;11.20;90.10;;;;;;4729834;30;20100;-81
2021/05/22 02:43:53;;;;;;;3.50;0.50;;;11.20;90.30;;;;;;4730056;30;20591;-82
2021/05/22 02:46:21;;;;;;;4.53;0.50;;;11.10;90.30;;;;;;4720402;30;20483;-82
2021/05/22 02:48:50;;;;;;;3.60;0.55;;;11.20;90.40;;;;;;4732061;30;20047;-82
2021/05/22 02:51:21;;;;;;;3.30;0.40;;;11.20;90.40;;;;;;4729099;30;20064;-81
2021/05/22 02:53:49;;;;;;;3.55;0.50;;;11.20;90.50;;;;;;4715236;30;20048;-82
2021/05/22 02:56:16;;;;;;;3.05;0.50;;;11.20;90.50;;;;;;4729622;30;20055;-82
2021/05/22 02:58:45;;;;;;;4.35;1.05;;;11.20;90.60;;;;;;4708060;30;20061;-81
2021/05/22 03:01:12;;;;;;;5.63;0.57;;;11.10;90.50;;;;;;4743563;30;20421;-81
2021/05/22 03:03:40;;;;;;;11.80;0.55;;;11.10;90.50;;;;;;4734338;30;20089;-82
2021/05/22 03:06:07;;;;;;;3.75;0.50;;;11.20;90.60;;;;;;4744000;30;20052;-82
2021/05/22 03:08:45;;;;;;;8.18;0.50;;;11.10;90.50;;;;;;4718184;30;20818;-82
2021/05/22 03:11:13;;;;;;;3.60;0.47;;;11.10;90.60;;;;;;4724267;30;20040;-82
2021/05/22 03:13:40;;;;;;;3.05;0.55;;;11.20;90.60;;;;;;4747845;30;20056;-82
2021/05/22 03:16:07;;;;;;;4.35;0.40;;;11.20;90.80;;;;;;4719460;30;20405;-83
2021/05/22 03:18:34;;;;;;;4.20;0.38;;;11.20;90.90;;;;;;4751285;30;20060;-82
2021/05/22 03:21:01;;;;;;;3.58;0.40;;;11.20;91.00;;;;;;4703880;30;20063;-82
2021/05/22 03:23:27;;;;;;;3.08;0.30;;;11.10;91.10;;;;;;4739877;30;20142;-82
2021/05/22 03:25:54;;;;;;;5.07;0.40;;;11.10;91.10;;;;;;4718831;30;20048;-82
2021/05/22 03:28:21;;;;;;;6.07;0.70;;;11.10;91.20;;;;;;4709266;30;20047;-82
2021/05/22 03:30:48;;;;;;;2.65;0.40;;;11.10;91.20;;;;;;4732438;30;20409;-82
2021/05/22 03:33:15;;;;;;;3.25;0.40;;;11.10;91.20;;;;;;4747341;30;20071;-83
2021/05/22 03:35:42;;;;;;;5.30;0.50;;;11.20;91.20;;;;;;4733122;30;20060;-83
2021/05/22 03:38:08;;;;;;;2.83;0.20;;;11.20;91.10;;;;;;4733056;30;20065;-83
2021/05/22 03:40:35;;;;;;;3.10;0.52;;;11.20;91.00;;;;;;4725840;30;20060;-82
2021/05/22 03:43:01;;;;;;;3.90;0.40;;;11.20;90.90;;;;;;4733324;30;20048;-82
2021/05/22 03:45:28;;;;;;;4.22;0.30;;;11.20;90.90;;;;;;4726555;30;20056;-82
2021/05/22 03:47:54;;;;;;;2.08;0.30;;;11.20;90.80;;;;;;4747235;30;20401;-82
2021/05/22 03:50:21;;;;;;;3.13;0.43;;;11.20;90.80;;;;;;4721514;30;20059;-82
2021/05/22 03:52:48;;;;;;;7.25;0.40;;;11.30;90.80;;;;;;4732484;30;20493;-83
2021/05/22 03:55:15;;;;;;;2.78;0.40;;;11.30;90.80;;;;;;4740846;30;20060;-81
2021/05/22 03:57:41;;;;;;;4.47;0.45;;;11.30;90.80;;;;;;4749710;30;20561;-82
2021/05/22 04:00:09;;;;;;;5.50;0.88;;;11.30;90.80;;;;;;4717555;30;20052;-83
2021/05/22 04:02:36;;;;;;;5.32;0.40;;;11.30;90.80;;;;;;4748283;30;21627;-82
2021/05/22 04:05:04;;;;;;;4.18;0.43;;;11.30;90.70;;;;;;4717614;30;20044;-82
2021/05/22 04:07:31;;;;;;;4.07;0.30;;;11.40;90.80;;;;;;4711236;30;20040;-83
2021/05/22 04:09:57;;;;;;;6.43;0.60;;;11.30;90.70;;;;;;4747268;30;20071;-82
2021/05/22 04:12:24;;;;;;;3.65;0.40;;;11.30;90.70;;;;;;4717231;30;20063;-82
2021/05/22 04:14:50;;;;;;;3.70;0.40;;;11.40;90.70;;;;;;4721292;30;20056;-82
2021/05/22 04:17:17;;;;;;;5.32;0.43;;;11.40;90.70;;;;;;4720025;30;20055;-83
2021/05/22 04:19:43;;;;;;;7.15;0.60;;;11.40;90.70;;;;;;4730683;30;20052;-83
2021/05/22 04:22:10;;;;;;;3.53;0.40;;;11.40;90.80;;;;;;4745324;30;20052;-82
2021/05/22 04:24:37;;;;;;;5.72;0.60;;;11.40;90.90;;;;;;4746182;30;20073;-81
2021/05/22 04:27:04;;;;;;;5.18;0.35;;;11.40;90.90;;;;;;4731389;30;20047;-82
2021/05/22 04:29:30;;;;;;;4.43;0.47;;;11.40;90.90;;;;;;4731863;30;20052;-82
2021/05/22 04:31:57;;;;;;;4.55;0.60;;;11.40;90.90;;;;;;4729210;30;20044;-83
2021/05/22 04:34:26;;;;;;;2.88;0.40;;;11.40;91.00;;;;;;4728987;30;20064;-85
2021/05/22 04:36:56;;;;;;;4.43;0.50;;;11.40;91.10;;;;;;4716240;30;20401;-85
2021/05/22 04:39:22;;;;;;;3.70;0.40;;;11.40;91.70;;;;;;4717810;30;20044;-86
2021/05/22 04:41:49;;;;;;;7.93;0.70;;;11.30;91.70;;;;;;4724231;30;20063;-88
2021/05/22 04:44:16;;;;;;;6.72;0.60;;;11.30;92.20;;;;;;4720078;30;20038;-86
2021/05/22 04:46:42;;;;;;;4.63;0.70;;;11.20;92.60;;;;;;4708793;30;20052;-88
2021/05/22 04:49:09;;;;;;;5.22;0.68;;;11.10;92.90;;;;;;4709912;30;20493;-86
2021/05/22 04:51:35;;;;;;;5.40;0.50;;;11.10;93.10;;;;;;4705439;30;20078;-86
2021/05/22 04:54:05;;;;;;;7.25;1.30;;;11.00;93.20;;;;;;4705167;30;20044;-88
2021/05/22 04:56:32;;;;;;;6.85;0.73;;;11.00;93.50;;;;;;4743781;30;20413;-89
2021/05/22 04:59:00;;;;;;;10.68;3.08;;;11.00;93.80;;;;;;4708570;30;20043;-90
2021/05/22 05:01:26;;;;;;;4.93;0.93;;;10.90;94.30;;;;;;4720693;30;20052;-84
2021/05/22 05:03:53;;;;;;;6.45;0.65;;;10.90;94.70;;;;;;4730999;30;20047;-86
2021/05/22 05:06:20;;;;;;;8.40;0.70;;;10.80;95.10;;;;;;4721654;30;20047;-85
2021/05/22 05:08:47;;;;;;;5.35;0.80;;;10.70;95.30;;;;;;4730410;30;20488;-86
2021/05/22 05:11:13;;;;;;;5.03;0.50;;;10.70;95.70;;;;;;4716986;30;20040;-86
2021/05/22 05:13:40;;;;;;;3.55;0.50;;;10.60;95.90;;;;;;4744255;30;20136;-85
2021/05/22 05:16:07;;;;;;;7.43;0.60;;;10.50;96.20;;;;;;4699306;30;20044;-84
2021/05/22 05:18:34;;;;;;;5.03;0.82;;;10.50;96.60;;;;;;4718532;30;20813;-85
2021/05/22 05:21:01;;;;;;;6.35;0.95;;;10.40;96.80;;;;;;4730411;30;20532;-84
2021/05/22 05:23:27;;;;;;;4.20;0.50;;;10.40;96.90;;;;;;4730964;30;20428;-84
2021/05/22 05:25:54;;;;;;;6.32;1.15;;;10.30;97.10;;;;;;4722391;30;20417;-84
2021/05/22 05:28:21;;;;;;;7.78;0.70;;;10.40;97.70;;;;;;4722534;30;20070;-84
2021/05/22 05:30:48;;;;;;;7.35;0.90;;;10.30;97.60;;;;;;4729613;30;20052;-88
2021/05/22 05:33:15;;;;;;;4.75;0.90;;;10.30;97.80;;;;;;4723729;30;20059;-86
2021/05/22 05:35:41;;;;;;;6.97;0.70;;;10.30;97.90;;;;;;4730561;30;20442;-87
2021/05/22 05:38:08;;;;;;;4.28;0.50;;;10.30;98.20;;;;;;4704593;30;20500;-86
2021/05/22 05:40:34;;;;;;;10.13;1.63;;;10.30;98.20;;;;;;4729889;30;20064;-85
2021/05/22 05:43:03;;;;;;;10.15;0.80;;;10.30;98.50;;;;;;4715930;30;20048;-86
2021/05/22 05:45:30;;;;;;;4.93;1.05;;;10.20;98.70;;;;;;4705936;30;20055;-87
2021/05/22 05:47:56;;;;;;;8.27;0.73;;;10.20;98.90;;;;;;4706518;30;20497;-86
2021/05/22 05:50:23;;;;;;;8.77;0.77;;;10.20;99.10;;;;;;4707136;30;20052;-86
2021/05/22 05:52:50;;;;;;;13.45;0.90;;;10.20;99.20;;;;;;4717517;30;20056;-86
2021/05/22 05:55:16;;;;;;;8.30;0.60;;;10.10;99.40;;;;;;4706738;30;20056;-87
2021/05/22 05:57:43;;;;;;;5.13;0.68;;;10.20;99.60;;;;;;4705994;30;20044;-85
2021/05/22 06:00:10;;;;;;;6.35;0.70;;;10.10;99.90;;;;;;4704177;30;20059;-85
2021/05/22 06:02:37;;;;;;;8.25;0.90;;;10.10;99.90;;;;;;4735454;30;20052;-82
2021/05/22 06:05:05;;;;;;;7.15;0.85;;;10.10;99.90;;;;;;4713863;30;20052;-83
2021/05/22 06:07:32;;;;;;;7.88;0.65;;;10.10;99.90;;;;;;4728750;30;20052;-83
2021/05/22 06:09:59;;;;;;;9.02;0.77;;;10.10;99.90;;;;;;4710323;30;20063;-84
2021/05/22 06:12:26;;;;;;;5.18;0.60;;;10.10;99.90;;;;;;4740761;30;20412;-84
2021/05/22 06:14:56;;;;;;;11.27;1.30;;;10.10;99.90;;;;;;4709024;30;20047;-82
2021/05/22 06:17:23;;;;;;;7.43;0.80;;;10.10;99.90;;;;;;4730095;30;20484;-84
2021/05/22 06:19:50;;;;;;;7.25;1.13;;;10.00;99.90;;;;;;4715549;30;20048;-84
2021/05/22 06:22:16;;;;;;;6.80;0.80;;;10.00;99.90;;;;;;4724189;30;20436;-84
2021/05/22 06:24:43;;;;;;;6.20;0.60;;;10.00;99.90;;;;;;4730277;30;20480;-84
2021/05/22 06:27:09;;;;;;;10.23;1.20;;;10.10;99.90;;;;;;4715346;30;20047;-84
2021/05/22 06:29:43;;;;;;;10.52;1.10;;;10.10;99.90;;;;;;4720101;30;20052;-83
2021/05/22 06:32:09;;;;;;;10.60;1.02;;;10.20;99.90;;;;;;4723050;30;20420;-84
2021/05/22 06:34:36;;;;;;;5.68;0.85;;;10.20;99.90;;;;;;4715335;30;20044;-83
2021/05/22 06:37:02;;;;;;;6.35;0.70;;;10.20;99.90;;;;;;4706416;30;20535;-85
2021/05/22 06:39:29;;;;;;;7.20;0.80;;;10.20;99.90;;;;;;4720381;30;20063;-84
2021/05/22 06:41:56;;;;;;;5.38;0.73;;;10.20;99.90;;;;;;4716608;30;20040;-83
2021/05/22 06:44:27;;;;;;;7.60;0.70;;;10.30;99.90;;;;;;4701590;30;20047;-83
2021/05/22 06:46:53;;;;;;;8.23;0.70;;;10.30;99.90;;;;;;4707150;30;20055;-84
2021/05/22 06:49:31;;;;;;;14.32;1.20;;;10.30;99.90;;;;;;4715829;30;20109;-83
2021/05/22 06:51:59;;;;;;;6.72;1.15;;;10.30;99.90;;;;;;4701001;30;20056;-84
2021/05/22 06:54:26;;;;;;;6.70;0.90;;;10.30;99.90;;;;;;4704737;30;20050;-83
2021/05/22 06:56:53;;;;;;;8.48;0.60;;;10.30;99.90;;;;;;4718937;30;20132;-83
2021/05/22 06:59:19;;;;;;;8.68;0.70;;;10.20;99.90;;;;;;4696037;30;20045;-83
2021/05/22 07:01:46;;;;;;;7.68;0.80;;;10.30;99.90;;;;;;4710077;30;20698;-84
2021/05/22 07:04:12;;;;;;;8.00;0.80;;;10.30;99.90;;;;;;4715411;30;20623;-84
2021/05/22 07:06:39;;;;;;;8.32;0.70;;;10.30;99.90;;;;;;4739500;30;20071;-82
2021/05/22 07:09:06;;;;;;;7.05;0.88;;;10.30;99.90;;;;;;4720390;30;20048;-84
2021/05/22 07:11:36;;;;;;;7.80;0.60;;;10.40;99.90;;;;;;4728343;30;20056;-84
2021/05/22 07:14:03;;;;;;;6.82;0.90;;;10.40;99.90;;;;;;4725187;30;20056;-84
2021/05/22 07:16:30;;;;;;;6.60;0.80;;;10.40;99.90;;;;;;4727634;30;20483;-85
2021/05/22 07:18:56;;;;;;;4.65;0.90;;;10.40;99.90;;;;;;4713512;30;20064;-86
2021/05/22 07:21:23;;;;;;;5.95;1.05;;;10.40;99.90;;;;;;4705472;30;20481;-86
2021/05/22 07:23:49;;;;;;;5.97;0.80;;;10.40;99.90;;;;;;4723175;30;20063;-83
2021/05/22 07:26:16;;;;;;;6.90;0.77;;;10.40;99.90;;;;;;4722877;30;20061;-85
2021/05/22 07:28:42;;;;;;;6.45;0.90;;;10.40;99.90;;;;;;4704606;30;20060;-86
2021/05/22 07:31:09;;;;;;;8.20;1.10;;;10.50;99.90;;;;;;4703067;30;20052;-85
2021/05/22 07:33:40;;;;;;;4.82;0.80;;;10.50;99.90;;;;;;4712993;30;20433;-83
2021/05/22 07:36:09;;;;;;;9.25;0.98;;;10.50;99.90;;;;;;4729241;30;20051;-81
2021/05/22 07:38:37;;;;;;;6.05;1.08;;;10.60;99.90;;;;;;4717603;30;20055;-83
2021/05/22 07:41:04;;;;;;;9.30;2.03;;;10.60;99.90;;;;;;4727303;30;20480;-83
2021/05/22 07:43:30;;;;;;;10.77;1.92;;;10.50;99.90;;;;;;4705544;30;20040;-81
2021/05/22 07:45:57;;;;;;;10.55;1.42;;;10.60;99.90;;;;;;4742713;30;20048;-84
2021/05/22 07:48:25;;;;;;;6.35;1.05;;;10.60;99.90;;;;;;4715391;30;20053;-83
2021/05/22 07:50:54;;;;;;;9.07;1.02;;;10.60;99.90;;;;;;4743013;30;20060;-83
2021/05/22 07:53:21;;;;;;;7.10;1.05;;;10.60;99.90;;;;;;4705204;30;20048;-83
2021/05/22 07:55:48;;;;;;;7.85;1.30;;;10.70;99.90;;;;;;4730799;30;20044;-83
2021/05/22 07:58:17;;;;;;;6.55;1.23;;;10.70;99.90;;;;;;4723935;30;20142;-83
2021/05/22 08:00:44;;;;;;;7.05;1.23;;;10.70;99.90;;;;;;4730445;30;20063;-82
2021/05/22 08:03:11;;;;;;;3.65;0.88;;;10.80;99.90;;;;;;4707556;30;20048;-84
2021/05/22 08:05:38;;;;;;;5.60;1.00;;;10.80;99.90;;;;;;4744372;30;20048;-83
2021/05/22 08:08:05;;;;;;;5.93;0.50;;;10.80;99.90;;;;;;4711177;30;20043;-83
2021/05/22 08:10:31;;;;;;;3.65;0.73;;;10.80;99.90;;;;;;4744605;30;20048;-83
2021/05/22 08:12:59;;;;;;;2.50;0.60;;;10.90;99.90;;;;;;4746840;30;20071;-83
2021/05/22 08:15:26;;;;;;;3.47;0.60;;;10.90;99.90;;;;;;4715455;30;20043;-84
2021/05/22 08:17:53;;;;;;;5.60;0.70;;;10.80;99.90;;;;;;4710053;30;20047;-84
2021/05/22 08:20:20;;;;;;;3.28;0.70;;;10.80;99.90;;;;;;4701062;30;20048;-83
2021/05/22 08:22:46;;;;;;;5.30;1.58;;;10.90;99.90;;;;;;4717184;30;20060;-83
2021/05/22 08:25:13;;;;;;;4.80;1.38;;;10.90;99.90;;;;;;4715320;30;20040;-83
2021/05/22 08:27:41;;;;;;;3.15;1.10;;;10.90;99.90;;;;;;4715558;30;20052;-82
2021/05/22 08:30:10;;;;;;;3.20;0.63;;;10.90;99.90;;;;;;4715615;30;20043;-83
2021/05/22 08:32:37;;;;;;;6.95;0.90;;;10.90;99.90;;;;;;4702179;30;20044;-83
2021/05/22 08:35:06;;;;;;;3.03;0.60;;;11.00;99.90;;;;;;4729443;30;20485;-83
2021/05/22 08:37:32;;;;;;;4.90;0.80;;;11.00;99.90;;;;;;4730284;30;20055;-82
2021/05/22 08:39:59;;;;;;;5.13;0.98;;;11.00;99.90;;;;;;4711627;30;20531;-79
2021/05/22 08:42:30;;;;;;;6.68;1.10;;;11.00;99.90;;;;;;4710041;30;20052;-89
2021/05/22 08:45:10;;;;;;;2.47;0.90;;;11.00;99.90;;;;;;4740356;30;20062;-86
2021/05/22 08:47:38;;;;;;;4.43;1.10;;;11.00;99.90;;;;;;4744866;30;20055;-81
2021/05/22 08:50:07;;;;;;;3.00;0.90;;;11.10;99.90;;;;;;4713740;30;20405;-81
2021/05/22 08:52:35;;;;;;;6.18;0.90;;;11.00;99.90;;;;;;4719674;30;20072;-80
2021/05/22 08:55:03;;;;;;;3.58;0.80;;;11.00;99.90;;;;;;4717011;30;20426;-80
2021/05/22 08:57:29;;;;;;;6.18;1.10;;;11.00;99.90;;;;;;4716223;30;20847;-80
2021/05/22 08:59:56;;;;;;;3.90;1.08;;;11.00;99.90;;;;;;4728250;30;20044;-82
2021/05/22 09:02:26;;;;;;;4.10;1.00;;;11.00;99.90;;;;;;4718201;30;20048;-81
2021/05/22 09:05:21;;;;;;;5.32;1.20;;;11.10;99.90;;;;;;4714618;30;20036;-82
2021/05/22 09:07:53;;;;;;;6.35;1.25;;;11.20;99.90;;;;;;4719571;30;20048;-82
2021/05/22 09:10:22;;;;;;;6.82;1.00;;;11.20;99.90;;;;;;4731085;30;20063;-81
2021/05/22 09:13:17;;;;;;;4.00;0.93;;;11.10;99.90;;;;;;4746206;30;20059;-81
2021/05/22 09:15:44;;;;;;;6.75;1.38;;;11.10;99.90;;;;;;4697771;30;20060;-82
2021/05/22 09:18:18;;;;;;;2.05;0.93;;;11.20;99.90;;;;;;4728423;30;20071;-81
2021/05/22 09:20:50;;;;;;;2.97;1.45;;;11.20;99.90;;;;;;4740470;30;20056;-81
2021/05/22 09:23:28;;;;;;;2.92;0.82;;;11.30;99.90;;;;;;4727533;30;20048;-82
2021/05/22 09:26:09;;;;;;;4.38;1.70;;;11.30;99.90;;;;;;4742739;30;20048;-81
2021/05/22 09:28:38;;;;;;;5.05;1.30;;;11.30;99.90;;;;;;4718226;30;20040;-80
2021/05/22 09:31:08;;;;;;;3.92;1.33;;;11.30;99.90;;;;;;4743900;30;20060;-79
2021/05/22 09:33:35;;;;;;;5.57;1.88;;;11.30;99.90;;;;;;4729108;30;20039;-80
2021/05/22 09:36:03;;;;;;;4.78;1.88;;;11.30;99.90;;;;;;4722903;30;20509;-80
2021/05/22 09:38:49;;;;;;;3.83;1.88;;;11.30;99.90;;;;;;4715635;30;20044;-80
2021/05/22 09:41:27;;;;;;;4.65;1.88;;;11.40;99.90;;;;;;4723229;30;20043;-79
2021/05/22 09:44:06;;;;;;;5.63;2.03;;;11.50;99.90;;;;;;4745162;30;20051;-79
2021/05/22 09:46:34;;;;;;;4.50;2.47;;;11.50;99.90;;;;;;4717975;30;20059;-78
2021/05/22 09:49:05;;;;;;;3.72;2.38;;;11.60;99.90;;;;;;4719282;30;20045;-79
2021/05/22 09:51:32;;;;;;;7.80;3.28;;;11.70;99.90;;;;;;4718829;30;20525;-79
2021/05/22 09:53:59;;;;;;;3.22;2.35;;;11.70;99.90;;;;;;4730054;30;20048;-79
2021/05/22 09:56:27;;;;;;;4.95;2.90;;;11.70;99.90;;;;;;4715301;30;20389;-78
2021/05/22 09:58:55;;;;;;;4.97;2.00;;;11.70;99.90;;;;;;4731300;30;20405;-79
2021/05/22 10:01:25;;;;;;;4.72;2.40;;;11.70;99.90;;;;;;4729367;30;20061;-80
2021/05/22 10:03:52;;;;;;;4.47;2.83;;;11.70;99.90;;;;;;4704228;30;20051;-80
2021/05/22 10:06:19;;;;;;;4.10;2.10;;;11.70;99.90;;;;;;4703133;30;20043;-79
2021/05/22 10:08:46;;;;;;;5.05;2.58;;;11.60;99.90;;;;;;4728548;30;20048;-79
2021/05/22 10:11:13;;;;;;;5.43;2.38;;;11.60;99.90;;;;;;4712918;30;20417;-79
2021/05/22 10:13:41;;;;;;;5.13;2.63;;;11.60;99.90;;;;;;4719987;30;20504;-80
2021/05/22 10:16:08;;;;;;;4.50;3.15;;;11.60;99.90;;;;;;4743154;30;20056;-80
2021/05/22 10:18:35;;;;;;;6.90;3.28;;;11.60;99.90;;;;;;4722046;30;20051;-79
2021/05/22 10:21:04;;;;;;;5.95;3.90;;;11.60;99.90;;;;;;4728673;30;20071;-79
2021/05/22 10:23:30;;;;;;;5.57;3.30;;;11.60;99.90;;;;;;4728704;30;20059;-79
2021/05/22 10:25:58;;;;;;;4.85;3.50;;;11.70;99.90;;;;;;4714200;30;20036;-79
2021/05/22 10:28:25;;;;;;;7.30;4.00;;;11.70;99.90;;;;;;4705970;30;20048;-79
2021/05/22 10:30:51;;;;;;;5.32;3.22;;;11.70;99.90;;;;;;4714306;30;20428;-79
2021/05/22 10:33:18;;;;;;;9.60;3.40;;;11.70;99.90;;;;;;4729861;30;20055;-79
2021/05/22 10:35:50;;;;;;;6.82;3.38;;;11.70;99.90;;;;;;4714420;30;20055;-80
2021/05/22 10:38:29;;;;;;;5.72;2.90;;;11.70;99.90;;;;;;4729485;30;20040;-79
2021/05/22 10:40:56;;;;;;;5.78;3.28;;;11.70;99.90;;;;;;4738082;30;20072;-78
2021/05/22 10:43:45;;;;;;;5.95;3.40;;;11.60;99.90;;;;;;4700458;30;20405;-79
2021/05/22 10:46:13;;;;;;;4.43;3.53;;;11.60;99.90;;;;;;4727410;30;20048;-78
2021/05/22 10:48:48;;;;;;;3.40;3.10;;;11.60;99.90;;;;;;4729155;30;20055;-78
2021/05/22 10:51:23;;;;;;;4.63;2.85;;;11.70;99.90;;;;;;4712657;30;20060;-77
2021/05/22 10:53:58;;;;;;;6.55;3.65;;;11.70;99.90;;;;;;4729328;30;20063;-86
2021/05/22 10:56:26;;;;;;;5.15;3.58;;;11.80;99.90;;;;;;4742938;30;20055;-79
2021/05/22 10:58:59;;;;;;;4.75;2.92;;;11.80;99.90;;;;;;4705987;30;20063;-80
2021/05/22 11:02:00;;;;;;;;;;;11.90;99.90;;;;;;4715991;30;20051;-77
2021/05/22 11:04:18;;;;;;;8.05;4.82;;;11.90;99.90;;;;;;4739020;30;19933;-77
2021/05/22 11:06:55;;;;;;;5.10;3.78;;;11.80;99.90;;;;;;4732194;30;20052;-79
2021/05/22 11:09:28;;;;;;;5.03;3.38;;;11.80;99.90;;;;;;4726818;30;20045;-78
2021/05/22 11:11:55;;;;;;;;;;;11.80;99.90;;;;;;4701233;30;20052;-79
2021/05/22 11:14:36;;;;;;;3.75;3.33;;;11.80;99.90;;;;;;4731733;30;20409;-80
2021/05/22 11:17:26;;;;;;;4.13;3.13;;;11.90;99.90;;;;;;4742991;30;20067;-80
2021/05/22 11:22:38;;;;;;;4.45;3.60;;;12.30;99.90;;;;;;4744112;30;20048;-81
2021/05/22 11:25:10;;;;;;;4.55;3.55;;;12.30;99.90;;;;;;4721092;30;20044;-79
2021/05/22 11:30:17;;;;;;;3.22;2.30;;;12.30;99.90;;;;;;4745888;30;20488;-76
2021/05/22 11:32:58;;;;;;;6.18;3.75;;;12.30;99.90;;;;;;4733897;30;20044;-78
2021/05/22 11:35:27;;;;;;;7.07;3.58;;;12.20;99.90;;;;;;4718329;30;20048;-82
2021/05/22 11:37:55;;;;;;;6.63;4.57;;;12.20;99.90;;;;;;4733593;30;20063;-82
2021/05/22 11:40:40;;;;;;;5.40;4.18;;;12.20;99.90;;;;;;4705448;30;20081;-81
2021/05/22 11:43:12;;;;;;;5.50;3.70;;;12.10;99.90;;;;;;4719526;30;20071;-81
2021/05/22 11:45:40;;;;;;;;;;;11.90;99.90;;;;;;4734448;30;20044;-82
2021/05/22 11:48:45;;;;;;;2.40;1.77;;;11.80;99.90;;;;;;4742320;30;19925;-82
2021/05/22 11:51:22;;;;;;;4.47;2.47;;;11.70;99.90;;;;;;4717945;30;20071;-81
2021/05/22 11:54:01;;;;;;;2.30;1.80;;;11.60;99.90;;;;;;4745276;30;20068;-78
2021/05/22 11:56:30;;;;;;;2.20;1.10;;;11.70;99.90;;;;;;4715768;30;20040;-78
2021/05/22 11:58:58;;;;;;;2.90;1.35;;;11.80;99.90;;;;;;4727853;30;20052;-80
2021/05/22 12:01:35;;;;;;;2.80;1.75;;;12.00;99.90;;;;;;4728792;30;20052;-80
2021/05/22 12:04:06;;;;;;;2.95;1.50;;;12.10;99.90;;;;;;4736992;30;20056;-80
2021/05/22 12:06:45;;;;;;;2.13;1.55;;;12.30;99.90;;;;;;4732570;30;20048;-79
2021/05/22 12:09:15;;;;;;;2.40;2.03;;;12.50;99.90;;;;;;4735762;30;20052;-79
2021/05/22 12:12:05;;;;;;;5.70;2.45;;;12.60;99.90;;;;;;4728920;30;20044;-79
2021/05/22 12:14:42;;;;;;;5.53;3.15;;;12.60;99.90;;;;;;4735618;30;20047;-80
2021/05/22 12:17:10;;;;;;;4.95;2.60;;;12.60;99.90;;;;;;4742371;30;20063;-79
2021/05/22 12:19:38;;;;;;;6.30;2.58;;;12.50;99.90;;;;;;4715789;30;20036;-79
2021/05/22 12:22:06;;;;;;;3.67;2.38;;;12.60;99.90;;;;;;4735985;30;20966;-78
2021/05/22 12:24:34;;;;;;;4.65;3.17;;;12.70;99.90;;;;;;4730207;30;20044;-78
2021/05/22 12:27:01;;;;;;;3.88;2.97;;;12.90;99.90;;;;;;4728476;30;20045;-78
2021/05/22 12:29:29;;;;;;;4.78;3.17;;;13.10;99.90;;;;;;4744425;30;20048;-79
2021/05/22 12:32:01;;;;;;;7.85;3.78;;;13.20;99.90;;;;;;4743121;30;20461;-78
2021/05/22 12:34:34;;;;;;;5.47;4.07;;;13.30;99.90;;;;;;4729252;30;20520;-79
2021/05/22 12:37:05;;;;;;;8.18;4.70;;;13.30;99.90;;;;;;4732488;30;20040;-79
2021/05/22 12:39:33;;;;;;;6.05;4.22;;;13.30;99.90;;;;;;4729793;30;20040;-79
2021/05/22 12:42:11;;;;;;;8.05;4.95;;;13.20;99.90;;;;;;4729820;30;20044;-79
2021/05/22 12:44:38;;;;;;;6.80;4.60;;;13.20;99.90;;;;;;4744160;30;20052;-78
2021/05/22 12:47:04;;;;;;;6.13;3.78;;;13.30;99.90;;;;;;4728394;30;20044;-78
2021/05/22 12:49:31;;;;;;;7.10;3.83;;;13.40;99.90;;;;;;4716298;30;20048;-80
2021/05/22 12:51:59;;;;;;;7.28;6.32;;;13.30;99.90;;;;;;4716155;30;20417;-79
2021/05/22 12:54:33;;;;;;;6.93;5.47;;;13.20;99.90;;;;;;4717204;30;20436;-80
2021/05/22 12:57:11;;;;;;;8.32;5.05;;;13.10;99.90;;;;;;4729868;30;20052;-80
2021/05/22 13:00:02;;;;;;;5.20;4.20;;;13.00;99.90;;;;;;4719808;30;20048;-79
2021/05/22 13:02:36;;;;;;;9.40;4.30;;;13.00;99.90;;;;;;4729360;30;20052;-79
2021/05/22 13:05:07;;;;;;;7.97;4.40;;;13.10;99.90;;;;;;4724567;30;20044;-80